Time;durP1;ratioP1;P1;durP2;ratioP2;P2;SDS_P1;SDS_P2;PMS_P1;PMS_P2;Temp;Humidity;BMP_temperature;BMP_pressure;BME280_temperature;BME280_humidity;BME280_pressure;Samples;Min_cycle;Max_cycle;Signal;HPM_P1;HPM_P2
2022/01/17 00:00:00;;;;;;;;;;;;;;;-0.79;100.00;100852.06;5017009;28;20398;-84
2022/01/17 00:02:28;;;;;;;;;;;;;;;-0.80;100.00;100861.38;5033707;28;20012;-84
2022/01/17 00:04:53;;;;;;;;;;;;;;;-0.81;100.00;100854.34;5037741;28;19916;-84
2022/01/17 00:07:18;;;;;;;;;;;;;;;-0.78;100.00;100868.09;5037383;28;19971;-84
2022/01/17 00:09:44;;;;;;;;;;;;;;;-0.69;100.00;100867.97;5037967;28;20337;-84
2022/01/17 00:12:10;;;;;;;;;;;;;;;-0.69;100.00;100862.53;5037190;28;19913;-85
2022/01/17 00:14:40;;;;;;;;;;;;;;;-0.65;100.00;100871.59;5037942;28;19917;-84
2022/01/17 00:19:43;;;;;;;;;;;;;;;-0.58;100.00;100880.00;5036238;28;20340;-85
2022/01/17 00:22:09;;;;;;;;;;;;;;;-0.56;100.00;100880.44;5036800;28;19921;-85
2022/01/17 00:24:35;;;;;;;;;;;;;;;-0.52;100.00;100873.16;5037552;28;19982;-84
2022/01/17 00:27:00;;;;;;;;;;;;;;;-0.53;100.00;100885.22;5037276;28;20341;-84
2022/01/17 00:29:26;;;;;;;;;;;;;;;-0.56;100.00;100872.25;5019512;28;19917;-84
2022/01/17 00:31:51;;;;;;;;;;;;;;;-0.57;100.00;100870.69;5036870;28;19913;-84
2022/01/17 00:34:19;;;;;;;;;;;;;;;-0.58;100.00;100874.56;5037348;28;19917;-84
2022/01/17 00:36:44;;;;;;;;;;;;;;;-0.59;100.00;100862.06;5030220;28;19917;-83
2022/01/17 00:39:10;;;;;;;;;;;;;;;-0.66;100.00;100878.19;5021124;28;19925;-84
2022/01/17 00:41:35;;;;;;;;;;;;;;;-0.69;100.00;100873.44;5037143;28;19917;-84
2022/01/17 00:44:01;;;;;;;;;;;;;;;-0.70;100.00;100878.06;5037048;28;19940;-84
2022/01/17 00:46:26;;;;;;;;;;;;;;;-0.75;100.00;100881.03;5036990;28;20007;-84
2022/01/17 00:48:52;;;;;;;;;;;;;;;-0.79;100.00;100879.31;5033625;28;19917;-85
2022/01/17 00:51:17;;;;;;;;;;;;;;;-0.69;100.00;100878.88;5015807;28;19917;-84
2022/01/17 00:53:43;;;;;;;;;;;;;;;-0.61;100.00;100875.25;5034229;28;19920;-76
2022/01/17 00:56:08;;;;;;;;;;;;;;;-0.50;100.00;100871.72;5033880;28;19917;-76
2022/01/17 00:58:34;;;;;;;;;;;;;;;-0.44;100.00;100861.34;5024161;28;19961;-76
2022/01/17 01:00:59;;;;;;;;;;;;;;;-0.48;100.00;100855.78;5024553;28;19917;-76
2022/01/17 01:03:25;;;;;;;;;;;;;;;-0.31;100.00;100862.91;5032024;28;19925;-76
2022/01/17 01:05:50;;;;;;;;;;;;;;;-0.26;100.00;100859.16;5033300;28;19917;-77
2022/01/17 01:08:15;;;;;;;;;;;;;;;-0.20;100.00;100869.47;5033025;28;20267;-75
2022/01/17 01:10:41;;;;;;;;;;;;;;;-0.21;100.00;100876.09;5033183;28;19921;-76
2022/01/17 01:13:06;;;;;;;;;;;;;;;-0.21;100.00;100881.53;5033365;28;19917;-84
2022/01/17 01:18:37;;;;;;;;;;;;;;;-0.20;100.00;100885.84;5013073;28;19924;-84
2022/01/17 01:29:20;;;;;;;;;;;;;;;-0.36;100.00;100914.94;5017833;28;19923;-84
2022/01/17 01:32:05;;;;;;;;;;;;;;;-0.39;100.00;100912.91;5033103;28;20360;-84
2022/01/17 01:34:39;;;;;;;;;;;;;;;-0.51;100.00;100893.84;5016714;28;19923;-84
2022/01/17 01:37:04;;;;;;;;;;;;;;;-0.56;100.00;100883.16;5032806;28;19917;-84
2022/01/17 01:39:30;;;;;;;;;;;;;;;-0.52;100.00;100884.88;5014239;28;21737;-84
2022/01/17 01:41:55;;;;;;;;;;;;;;;-0.47;100.00;100886.56;5014802;28;19917;-84
2022/01/17 01:44:22;;;;;;;;;;;;;;;-0.47;100.00;100879.19;5032422;28;19932;-84
2022/01/17 01:46:48;;;;;;;;;;;;;;;-0.43;100.00;100881.22;5015239;28;19917;-83
2022/01/17 01:49:14;;;;;;;;;;;;;;;-0.43;100.00;100884.75;5032326;28;20008;-84
2022/01/17 01:51:41;;;;;;;;;;;;;;;-0.47;100.00;100872.94;5014993;28;20430;-84
2022/01/17 01:54:08;;;;;;;;;;;;;;;-0.48;100.00;100865.91;5032477;28;19923;-84
2022/01/17 01:56:37;;;;;;;;;;;;;;;-0.49;100.00;100872.50;5014389;28;19917;-83
2022/01/17 01:59:02;;;;;;;;;;;;;;;-0.54;100.00;100870.00;5014879;28;20330;-82
2022/01/17 02:01:28;;;;;;;;;;;;;;;-0.57;100.00;100866.03;5032151;28;19924;-83
2022/01/17 02:03:53;;;;;;;;;;;;;;;-0.65;100.00;100877.06;5032216;28;20313;-84
2022/01/17 02:06:19;;;;;;;;;;;;;;;-0.68;100.00;100885.88;5032297;28;20008;-84
2022/01/17 02:08:44;;;;;;;;;;;;;;;-0.71;100.00;100892.81;5014457;28;20005;-84
2022/01/17 02:11:10;;;;;;;;;;;;;;;-0.78;100.00;100875.47;5032159;28;20302;-76
2022/01/17 02:13:37;;;;;;;;;;;;;;;-0.87;100.00;100872.03;5031571;28;20375;-76
2022/01/17 02:16:04;;;;;;;;;;;;;;;-0.91;100.00;100849.34;5014584;28;20008;-76
2022/01/17 02:18:31;;;;;;;;;;;;;;;-0.86;100.00;100851.84;5014559;28;19921;-76
2022/01/17 02:23:42;;;;;;;;;;;;;;;-0.80;100.00;100850.47;5017100;28;19924;-76
2022/01/17 02:26:07;;;;;;;;;;;;;;;-0.82;100.00;100839.16;5014760;28;20473;-76
2022/01/17 02:28:33;;;;;;;;;;;;;;;-0.90;100.00;100840.06;5014452;28;20015;-76
2022/01/17 02:30:59;;;;;;;;;;;;;;;-1.07;100.00;100841.88;5031999;28;19924;-76
2022/01/17 02:33:24;;;;;;;;;;;;;;;-1.15;100.00;100850.94;5031779;28;19917;-76
2022/01/17 02:35:51;;;;;;;;;;;;;;;-1.23;100.00;100840.94;5032663;28;19917;-76
2022/01/17 02:38:16;;;;;;;;;;;;;;;-1.31;100.00;100832.88;5013425;28;20267;-76
2022/01/17 02:40:42;;;;;;;;;;;;;;;-1.49;100.00;100833.06;5031610;28;19952;-76
2022/01/17 02:43:08;;;;;;;;;;;;;;;-1.54;100.00;100843.38;5031916;28;19960;-76
2022/01/17 02:48:17;;;;;;;;;;;;;;;-1.63;100.00;100826.34;5032428;28;20268;-84
2022/01/17 02:50:42;;;;;;;;;;;;;;;-1.67;100.00;100819.97;5013595;28;19932;-83
2022/01/17 02:53:09;;;;;;;;;;;;;;;-1.65;100.00;100828.59;5031503;28;19924;-83
2022/01/17 02:55:34;;;;;;;;;;;;;;;-1.65;100.00;100834.03;5031878;28;19979;-83
2022/01/17 02:58:00;;;;;;;;;;;;;;;-1.64;100.00;100827.47;5031493;28;20039;-83
2022/01/17 03:00:25;;;;;;;;;;;;;;;-1.57;100.00;100828.50;5031522;28;19967;-83
2022/01/17 03:02:50;;;;;;;;;;;;;;;-1.56;100.00;100824.66;5031235;28;19916;-83
2022/01/17 03:05:16;;;;;;;;;;;;;;;-1.57;100.00;100825.78;5013365;28;19917;-83
2022/01/17 03:07:42;;;;;;;;;;;;;;;-1.60;100.00;100831.91;5013564;28;20397;-84
2022/01/17 03:10:14;;;;;;;;;;;;;;;-1.53;100.00;100828.63;5031183;28;20405;-83
2022/01/17 03:12:40;;;;;;;;;;;;;;;-1.56;100.00;100840.19;5030614;28;19931;-84
2022/01/17 03:15:06;;;;;;;;;;;;;;;-1.59;100.00;100843.56;5031450;28;20290;-84
2022/01/17 03:17:31;;;;;;;;;;;;;;;-1.63;100.00;100829.06;5030852;28;19956;-84
2022/01/17 03:19:56;;;;;;;;;;;;;;;-1.70;100.00;100813.28;5028671;28;19924;-84
2022/01/17 03:22:22;;;;;;;;;;;;;;;-1.79;100.00;100828.09;5031031;28;19926;-84
2022/01/17 03:24:47;;;;;;;;;;;;;;;-1.94;100.00;100815.94;5031359;28;20019;-83
2022/01/17 03:27:13;;;;;;;;;;;;;;;-1.96;100.00;100821.69;5031097;28;19959;-83
2022/01/17 03:29:38;;;;;;;;;;;;;;;-2.00;100.00;100831.66;5013501;28;19968;-84
2022/01/17 03:32:04;;;;;;;;;;;;;;;-2.04;100.00;100828.00;5030388;28;19948;-82
2022/01/17 03:34:29;;;;;;;;;;;;;;;-2.10;100.00;100840.19;5031074;28;19924;-83
2022/01/17 03:36:55;;;;;;;;;;;;;;;-2.20;100.00;100832.47;5031127;28;19946;-83
2022/01/17 03:39:20;;;;;;;;;;;;;;;-2.19;100.00;100844.94;5031045;28;19916;-83
2022/01/17 03:41:45;;;;;;;;;;;;;;;-2.20;100.00;100854.19;5031144;28;20386;-82
2022/01/17 03:44:11;;;;;;;;;;;;;;;-2.19;100.00;100855.81;5031012;28;19975;-83
2022/01/17 03:46:36;;;;;;;;;;;;;;;-2.23;100.00;100854.88;5030701;28;20340;-83
2022/01/17 03:49:02;;;;;;;;;;;;;;;-2.15;100.00;100855.94;5013508;28;19936;-83
2022/01/17 03:51:31;;;;;;;;;;;;;;;-2.16;100.00;100857.84;5030567;28;20452;-83
2022/01/17 03:53:56;;;;;;;;;;;;;;;-2.14;100.00;100852.84;5031151;28;19924;-83
2022/01/17 03:56:22;;;;;;;;;;;;;;;-2.09;100.00;100843.72;5030667;28;19925;-83
2022/01/17 03:58:47;;;;;;;;;;;;;;;-2.06;100.00;100849.28;5012858;28;19967;-83
2022/01/17 04:01:13;;;;;;;;;;;;;;;-2.05;100.00;100850.06;5030174;28;19946;-83
2022/01/17 04:03:38;;;;;;;;;;;;;;;-2.06;100.00;100849.28;5013117;28;19960;-83
2022/01/17 04:06:04;;;;;;;;;;;;;;;-2.01;100.00;100840.94;5012789;28;19963;-83
2022/01/17 04:08:29;;;;;;;;;;;;;;;-2.00;100.00;100845.25;5013550;28;19913;-83
2022/01/17 04:10:54;;;;;;;;;;;;;;;-1.99;100.00;100835.97;5030821;28;19983;-83
2022/01/17 04:13:20;;;;;;;;;;;;;;;-1.92;100.00;100828.06;5031296;28;19920;-83
2022/01/17 04:15:45;;;;;;;;;;;;;;;-1.88;100.00;100823.53;5030814;28;20397;-83
2022/01/17 04:18:11;;;;;;;;;;;;;;;-1.85;100.00;100821.28;5032033;28;20024;-83
2022/01/17 04:20:37;;;;;;;;;;;;;;;-1.79;100.00;100833.53;5031064;28;19960;-83
2022/01/17 04:23:06;;;;;;;;;;;;;;;-1.74;100.00;100822.47;5030854;28;19917;-83
2022/01/17 04:25:32;;;;;;;;;;;;;;;-1.72;100.00;100815.53;5034172;28;19917;-83
2022/01/17 04:27:58;;;;;;;;;;;;;;;-1.69;100.00;100833.09;5034768;28;19924;-83
2022/01/17 04:30:24;;;;;;;;;;;;;;;-1.70;100.00;100826.09;5033914;28;19967;-83
2022/01/17 04:32:49;;;;;;;;;;;;;;;-1.74;100.00;100839.56;5016500;28;19920;-82
2022/01/17 04:35:20;;;;;;;;;;;;;;;-1.81;100.00;100849.38;5034120;28;20371;-83
2022/01/17 04:37:46;;;;;;;;;;;;;;;-1.92;100.00;100852.53;5033579;28;19916;-82
2022/01/17 04:40:11;;;;;;;;;;;;;;;-1.87;100.00;100854.25;5033727;28;19928;-83
2022/01/17 04:42:43;;;;;;;;;;;;;;;-1.83;100.00;100846.22;5018222;28;19914;-83
2022/01/17 04:45:11;;;;;;;;;;;;;;;-1.81;100.00;100838.50;5028495;28;19917;-83
2022/01/17 04:47:36;;;;;;;;;;;;;;;-1.81;100.00;100839.31;5033633;28;20012;-82
2022/01/17 04:50:13;;;;;;;;;;;;;;;-1.80;100.00;100842.81;5033465;28;20059;-83
2022/01/17 04:52:38;;;;;;;;;;;;;;;-1.80;100.00;100848.25;5034027;28;19939;-83
2022/01/17 04:55:05;;;;;;;;;;;;;;;-1.79;100.00;100836.25;5034045;28;19916;-82
2022/01/17 04:57:30;;;;;;;;;;;;;;;-1.75;100.00;100831.75;5022376;28;19917;-83
2022/01/17 04:59:56;;;;;;;;;;;;;;;-1.69;100.00;100822.22;5033833;28;20383;-83
2022/01/17 05:02:21;;;;;;;;;;;;;;;-1.63;100.00;100823.63;5032377;28;19921;-83
2022/01/17 05:04:48;;;;;;;;;;;;;;;-1.61;100.00;100826.78;5020536;28;19917;-83
2022/01/17 05:07:14;;;;;;;;;;;;;;;-1.58;100.00;100834.28;5014317;28;20007;-83
2022/01/17 05:09:43;;;;;;;;;;;;;;;-1.56;100.00;100834.75;5028023;28;19961;-84
2022/01/17 05:12:09;;;;;;;;;;;;;;;-1.52;100.00;100841.09;5032748;28;19952;-83
2022/01/17 05:14:35;;;;;;;;;;;;;;;-1.62;100.00;100830.66;5033276;28;20017;-83
2022/01/17 05:17:03;;;;;;;;;;;;;;;-1.66;100.00;100840.63;5033438;28;19924;-82
2022/01/17 05:22:12;;;;;;;;;;;;;;;-1.61;100.00;100826.78;5032339;28;20396;-83
2022/01/17 05:24:38;;;;;;;;;;;;;;;-1.59;100.00;100825.34;5015158;28;20011;-83
2022/01/17 05:27:03;;;;;;;;;;;;;;;-1.56;100.00;100829.28;5015856;28;20528;-81
2022/01/17 05:29:29;;;;;;;;;;;;;;;-1.58;100.00;100839.75;5032579;28;20263;-83
2022/01/17 05:31:54;;;;;;;;;;;;;;;-1.56;100.00;100840.19;5032419;28;20050;-83
2022/01/17 05:34:20;;;;;;;;;;;;;;;-1.52;100.00;100836.47;5032968;28;19960;-83
2022/01/17 05:36:45;;;;;;;;;;;;;;;-1.48;100.00;100823.75;5032784;28;19921;-83
2022/01/17 05:39:10;;;;;;;;;;;;;;;-1.47;100.00;100827.28;5032975;28;20404;-83
2022/01/17 05:41:36;;;;;;;;;;;;;;;-1.41;100.00;100825.91;5007831;28;19925;-83
2022/01/17 05:44:01;;;;;;;;;;;;;;;-1.48;100.00;100837.38;5032102;28;19928;-83
2022/01/17 05:46:27;;;;;;;;;;;;;;;-1.47;100.00;100843.59;5024683;28;19926;-83
2022/01/17 05:48:52;;;;;;;;;;;;;;;-1.52;100.00;100839.19;5025600;28;19921;-83
2022/01/17 05:51:18;;;;;;;;;;;;;;;-1.58;100.00;100842.47;5032765;28;19916;-83
2022/01/17 05:53:43;;;;;;;;;;;;;;;-1.59;100.00;100833.50;5032805;28;20275;-84
2022/01/17 05:56:08;;;;;;;;;;;;;;;-1.54;100.00;100827.84;5032681;28;19917;-84
2022/01/17 05:58:34;;;;;;;;;;;;;;;-1.52;100.00;100828.28;5030248;28;19921;-83
2022/01/17 06:00:59;;;;;;;;;;;;;;;-1.51;100.00;100815.50;5025147;28;19924;-84
2022/01/17 06:03:25;;;;;;;;;;;;;;;-1.47;100.00;100821.84;5015415;28;19932;-83
2022/01/17 06:05:51;;;;;;;;;;;;;;;-1.46;100.00;100807.13;5012400;28;19917;-84
2022/01/17 06:08:17;;;;;;;;;;;;;;;-1.43;100.00;100815.41;5026970;28;19918;-84
2022/01/17 06:10:42;;;;;;;;;;;;;;;-1.43;100.00;100809.16;5013658;28;19928;-83
2022/01/17 06:13:07;;;;;;;;;;;;;;;-1.46;100.00;100815.28;5013920;28;19920;-83
2022/01/17 06:15:33;;;;;;;;;;;;;;;-1.43;100.00;100823.56;5032346;28;19917;-83
2022/01/17 06:17:58;;;;;;;;;;;;;;;-1.39;100.00;100812.78;5029873;28;20024;-83
2022/01/17 06:20:23;;;;;;;;;;;;;;;-1.33;100.00;100826.97;5030766;28;19933;-82
2022/01/17 06:22:49;;;;;;;;;;;;;;;-1.33;100.00;100827.75;5027416;28;20263;-83
2022/01/17 06:25:14;;;;;;;;;;;;;;;-1.28;100.00;100830.25;5020358;28;20294;-83
2022/01/17 06:27:40;;;;;;;;;;;;;;;-1.24;100.00;100820.28;5023045;28;20446;-84
2022/01/17 06:30:05;;;;;;;;;;;;;;;-1.20;100.00;100823.13;5019980;28;20523;-84
2022/01/17 06:32:31;;;;;;;;;;;;;;;-1.18;100.00;100821.66;5005827;28;20398;-83
2022/01/17 06:34:56;;;;;;;;;;;;;;;-1.20;100.00;100823.13;5028987;28;20458;-84
2022/01/17 06:37:22;;;;;;;;;;;;;;;-1.19;100.00;100822.78;5013538;28;19928;-76
2022/01/17 06:39:47;;;;;;;;;;;;;;;-1.21;100.00;100808.72;5023875;28;19916;-76
2022/01/17 06:42:13;;;;;;;;;;;;;;;-1.19;100.00;100805.66;5031050;28;19949;-76
2022/01/17 06:44:38;;;;;;;;;;;;;;;-1.21;100.00;100797.81;5015080;28;19929;-76
2022/01/17 06:47:03;;;;;;;;;;;;;;;-1.18;100.00;100807.25;5024367;28;20299;-76
2022/01/17 06:49:29;;;;;;;;;;;;;;;-1.17;100.00;100812.34;5018456;28;19967;-76
2022/01/17 06:51:54;;;;;;;;;;;;;;;-1.13;100.00;100835.03;5006971;28;19936;-76
2022/01/17 06:54:20;;;;;;;;;;;;;;;-1.11;100.00;100842.88;5029157;28;19917;-76
2022/01/17 06:56:45;;;;;;;;;;;;;;;-1.08;100.00;100848.44;5029848;28;19971;-76
2022/01/17 06:59:11;;;;;;;;;;;;;;;-1.03;100.00;100859.09;5025841;28;19917;-76
2022/01/17 07:01:38;;;;;;;;;;;;;;;-0.99;100.00;100860.03;5011131;28;19917;-76
2022/01/17 07:04:04;;;;;;;;;;;;;;;-0.97;100.00;100852.28;5029432;28;20366;-76
2022/01/17 07:06:29;;;;;;;;;;;;;;;-0.96;100.00;100844.91;5011336;28;19979;-76
2022/01/17 07:08:54;;;;;;;;;;;;;;;-0.93;100.00;100831.41;5027902;28;19917;-75
2022/01/17 07:11:21;;;;;;;;;;;;;;;-0.91;100.00;100824.84;5027624;28;20379;-76
2022/01/17 07:13:46;;;;;;;;;;;;;;;-0.97;100.00;100822.34;5004843;28;19921;-76
2022/01/17 07:16:12;;;;;;;;;;;;;;;-1.00;100.00;100816.78;5016443;28;20278;-76
2022/01/17 07:18:37;;;;;;;;;;;;;;;-1.04;100.00;100796.81;5028817;28;20459;-76
2022/01/17 07:21:02;;;;;;;;;;;;;;;-1.05;100.00;100796.00;5028544;28;19913;-75
2022/01/17 07:23:28;;;;;;;;;;;;;;;-1.04;100.00;100797.59;5010795;28;19916;-76
2022/01/17 07:25:53;;;;;;;;;;;;;;;-1.07;100.00;100803.75;5030950;28;19917;-76
2022/01/17 07:28:19;;;;;;;;;;;;;;;-1.05;100.00;100806.13;5031465;28;19924;-76
2022/01/17 07:30:44;;;;;;;;;;;;;;;-1.07;100.00;100809.19;5030290;28;19972;-76
2022/01/17 07:33:10;;;;;;;;;;;;;;;-1.01;100.00;100823.38;5026628;28;19917;-76
2022/01/17 07:35:35;;;;;;;;;;;;;;;-0.95;100.00;100839.16;5029812;28;20396;-76
2022/01/17 07:38:01;;;;;;;;;;;;;;;-0.84;100.00;100839.47;5029476;28;19917;-76
2022/01/17 07:40:26;;;;;;;;;;;;;;;-0.88;100.00;100821.44;5031081;28;19921;-76
2022/01/17 07:42:52;;;;;;;;;;;;;;;-0.89;100.00;100830.75;5030353;28;19925;-76
2022/01/17 07:45:19;;;;;;;;;;;;;;;-0.88;100.00;100838.56;5025655;28;19972;-76
2022/01/17 07:48:07;;;;;;;;;;;;;;;-0.79;100.00;100860.25;5023031;28;19920;-76
2022/01/17 07:50:30;;;;;;;;;;;;;;;-0.71;100.00;100870.22;5030509;28;20432;-76
2022/01/17 07:52:55;;;;;;;;;;;;;;;-0.67;100.00;100871.94;5025956;28;19925;-76
2022/01/17 07:55:21;;;;;;;;;;;;;;;-0.61;100.00;100856.16;5011604;28;19913;-77
2022/01/17 07:57:46;;;;;;;;;;;;;;;-0.56;100.00;100824.00;5019684;28;20003;-76
2022/01/17 08:00:13;;;;;;;;;;;;;;;-0.50;100.00;100783.69;5002792;28;19948;-76
2022/01/17 08:02:44;;;;;;;;;;;;;;;-0.46;100.00;100773.69;5032589;28;19921;-76
2022/01/17 08:05:14;;;;;;;;;;;;;;;-0.36;100.00;100783.34;5031716;28;19924;-76
2022/01/17 08:07:39;;;;;;;;;;;;;;;-0.34;100.00;100790.00;5033986;28;19962;-76
2022/01/17 08:10:07;;;;;;;;;;;;;;;-0.31;100.00;100813.84;5028407;28;20047;-76
2022/01/17 08:12:33;;;;;;;;;;;;;;;-0.28;100.00;100806.94;5032943;28;19963;-76
2022/01/17 08:15:04;;;;;;;;;;;;;;;-0.32;100.00;100804.06;5032072;28;19921;-76
2022/01/17 08:17:29;;;;;;;;;;;;;;;-0.36;100.00;100799.69;5018877;28;19918;-76
2022/01/17 08:19:54;;;;;;;;;;;;;;;-0.35;100.00;100782.97;5013627;28;19917;-76
2022/01/17 08:22:20;;;;;;;;;;;;;;;-0.33;100.00;100772.53;5015924;28;19917;-77
2022/01/17 08:24:45;;;;;;;;;;;;;;;-0.31;100.00;100759.31;5020093;28;19925;-77
2022/01/17 08:27:10;;;;;;;;;;;;;;;-0.28;100.00;100752.41;5019876;28;19932;-77
2022/01/17 08:29:36;;;;;;;;;;;;;;;-0.27;100.00;100732.97;5023970;28;19913;-76
2022/01/17 08:32:05;;;;;;;;;;;;;;;-0.35;100.00;100739.34;5032982;28;19922;-76
2022/01/17 08:34:30;;;;;;;;;;;;;;;-0.41;100.00;100739.97;5033296;28;19949;-76
2022/01/17 08:36:57;;;;;;;;;;;;;;;-0.39;100.00;100743.91;5032893;28;19964;-76
2022/01/17 08:39:24;;;;;;;;;;;;;;;-0.34;100.00;100748.34;5015621;28;19917;-77
2022/01/17 08:41:50;;;;;;;;;;;;;;;-0.33;100.00;100737.09;5016963;28;20398;-76
2022/01/17 08:44:17;;;;;;;;;;;;;;;-0.34;100.00;100732.78;5034616;28;19913;-76
2022/01/17 08:46:43;;;;;;;;;;;;;;;-0.28;100.00;100725.16;5033646;28;19947;-76
2022/01/17 08:49:09;;;;;;;;;;;;;;;-0.16;100.00;100738.72;5032904;28;19921;-76
2022/01/17 08:51:34;;;;;;;;;;;;;;;0.03;100.00;100740.78;5034215;28;19924;-76
2022/01/17 08:53:59;;;;;;;;;;;;;;;0.21;100.00;100789.22;5032544;28;19956;-76
2022/01/17 08:56:27;;;;;;;;;;;;;;;0.34;100.00;100779.81;5032341;28;19948;-76
2022/01/17 08:58:53;;;;;;;;;;;;;;;0.38;100.00;100786.16;5032024;28;19921;-76
2022/01/17 09:01:18;;;;;;;;;;;;;;;0.50;100.00;100768.91;5032505;28;20397;-76
2022/01/17 09:03:44;;;;;;;;;;;;;;;0.54;100.00;100772.53;5031278;28;19928;-76
2022/01/17 09:06:09;;;;;;;;;;;;;;;0.56;100.00;100764.78;5031937;28;19952;-77
2022/01/17 09:08:35;;;;;;;;;;;;;;;0.51;100.00;100729.56;5031373;28;19917;-76
2022/01/17 09:11:00;;;;;;;;;;;;;;;0.55;100.00;100714.06;5031739;28;19957;-76
2022/01/17 09:13:25;;;;;;;;;;;;;;;0.63;100.00;100726.75;5032826;28;19917;-76
2022/01/17 09:15:51;;;;;;;;;;;;;;;0.70;100.00;100732.38;5033550;28;19962;-76
2022/01/17 09:18:19;;;;;;;;;;;;;;;0.73;100.00;100704.34;5033625;28;19917;-77
2022/01/17 09:20:45;;;;;;;;;;;;;;;0.73;100.00;100696.16;5033742;28;20382;-76
2022/01/17 09:23:10;;;;;;;;;;;;;;;0.67;100.00;100677.69;5015758;28;19980;-76
2022/01/17 09:25:35;;;;;;;;;;;;;;;0.72;100.00;100670.00;5033897;28;19924;-76
2022/01/17 09:28:01;;;;;;;;;;;;;;;0.79;100.00;100692.03;5033409;28;19920;-75
2022/01/17 09:30:27;;;;;;;;;;;;;;;0.91;100.00;100704.75;5033834;28;20331;-76
2022/01/17 09:32:53;;;;;;;;;;;;;;;0.99;100.00;100687.38;5033448;28;19996;-76
2022/01/17 09:35:18;;;;;;;;;;;;;;;1.07;100.00;100688.31;5033552;28;19917;-77
2022/01/17 09:37:46;;;;;;;;;;;;;;;1.10;100.00;100690.34;5033529;28;20279;-76
2022/01/17 09:40:11;;;;;;;;;;;;;;;1.13;100.00;100689.66;5033490;28;19928;-76
2022/01/17 09:42:37;;;;;;;;;;;;;;;1.09;100.00;100681.38;5033446;28;20318;-76
2022/01/17 09:45:07;;;;;;;;;;;;;;;1.09;100.00;100680.59;5033168;28;20003;-77
2022/01/17 09:47:34;;;;;;;;;;;;;;;1.11;100.00;100681.00;5033440;28;19921;-76
2022/01/17 09:50:01;;;;;;;;;;;;;;;1.20;100.00;100676.13;5033057;28;19920;-76
2022/01/17 09:52:36;;;;;;;;;;;;;;;1.21;100.00;100675.78;5015768;28;20020;-76
2022/01/17 09:55:10;;;;;;;;;;;;;;;1.29;100.00;100663.06;5032956;28;19984;-77
2022/01/17 09:57:39;;;;;;;;;;;;;;;1.28;100.00;100632.19;5033245;28;19917;-76
2022/01/17 10:00:05;;;;;;;;;;;;;;;1.27;100.00;100618.88;5032866;28;19978;-76
2022/01/17 10:02:39;;;;;;;;;;;;;;;1.30;100.00;100602.53;5032973;28;20036;-76
2022/01/17 10:05:08;;;;;;;;;;;;;;;1.38;100.00;100592.53;5032780;28;20433;-76
2022/01/17 10:07:52;;;;;;;;;;;;;;;1.46;100.00;100599.72;5033079;28;19921;-76
2022/01/17 10:10:32;;;;;;;;;;;;;;;1.54;100.00;100589.72;5032880;28;19921;-76
2022/01/17 10:13:02;;;;;;;;;;;;;;;1.64;100.00;100595.38;5015025;28;19953;-76
2022/01/17 10:15:36;;;;;;;;;;;;;;;1.76;100.00;100584.28;5032946;28;19921;-77
2022/01/17 10:18:01;;;;;;;;;;;;;;;1.92;100.00;100577.88;5032626;28;19956;-76
2022/01/17 10:20:32;;;;;;;;;;;;;;;2.19;100.00;100563.06;5032570;28;20346;-76
2022/01/17 10:23:16;;;;;;;;;;;;;;;2.37;100.00;100561.41;5032458;28;20394;-76
2022/01/17 10:25:57;;;;;;;;;;;;;;;2.57;100.00;100560.13;5032744;28;19917;-76
2022/01/17 10:28:47;;;;;;;;;;;;;;;2.70;100.00;100541.50;5017206;28;19920;-76
2022/01/17 10:36:47;;;;;;;;;;;;;;;2.95;99.03;100539.09;5032472;28;19924;-76
2022/01/17 10:39:13;;;;;;;;;;;;;;;2.98;100.00;100530.13;5032254;28;19921;-76
2022/01/17 10:41:38;;;;;;;;;;;;;;;3.05;99.32;100511.00;5032390;28;19913;-76
2022/01/17 10:44:04;;;;;;;;;;;;;;;3.06;98.59;100501.63;5031787;28;20283;-77
2022/01/17 10:46:30;;;;;;;;;;;;;;;3.07;98.47;100487.56;5032308;28;20445;-76
2022/01/17 10:48:57;;;;;;;;;;;;;;;3.13;98.41;100498.97;5032025;28;19995;-76
2022/01/17 10:51:29;;;;;;;;;;;;;;;3.18;97.30;100485.72;5032268;28;19923;-76
2022/01/17 10:53:55;;;;;;;;;;;;;;;3.21;95.76;100490.44;5031679;28;20374;-76
2022/01/17 10:56:22;;;;;;;;;;;;;;;3.23;97.15;100481.84;5032081;28;19956;-76
2022/01/17 10:58:48;;;;;;;;;;;;;;;3.29;96.35;100463.88;5031701;28;19946;-76
2022/01/17 11:01:15;;;;;;;;;;;;;;;3.33;95.94;100470.19;5014359;28;19925;-77
2022/01/17 11:03:47;;;;;;;;;;;;;;;3.45;94.71;100461.66;5031616;28;19916;-76
2022/01/17 11:06:14;;;;;;;;;;;;;;;3.51;93.94;100451.94;5032070;28;20382;-77
2022/01/17 11:08:41;;;;;;;;;;;;;;;3.57;93.30;100453.16;5014288;28;19917;-76
2022/01/17 11:11:08;;;;;;;;;;;;;;;3.67;92.91;100452.47;5031686;28;19958;-76
2022/01/17 11:13:34;;;;;;;;;;;;;;;3.74;92.24;100462.69;5031621;28;19960;-77
2022/01/17 11:16:00;;;;;;;;;;;;;;;3.83;91.62;100456.88;5031646;28;19971;-76
2022/01/17 11:18:27;;;;;;;;;;;;;;;3.90;91.33;100454.19;5031479;28;20291;-76
2022/01/17 11:21:10;;;;;;;;;;;;;;;3.97;90.85;100443.25;5031684;28;19924;-76
2022/01/17 11:23:36;;;;;;;;;;;;;;;4.06;89.85;100429.97;5031723;28;19917;-77
2022/01/17 11:26:01;;;;;;;;;;;;;;;4.19;88.87;100412.00;5031731;28;19913;-76
2022/01/17 11:28:28;;;;;;;;;;;;;;;4.31;87.41;100397.94;5031455;28;19939;-76
2022/01/17 11:30:59;;;;;;;;;;;;;;;4.34;87.15;100393.63;5031353;28;19917;-76
2022/01/17 11:33:25;;;;;;;;;;;;;;;4.41;86.26;100408.16;5031032;28;19944;-76
2022/01/17 11:35:53;;;;;;;;;;;;;;;4.48;85.10;100408.22;5031500;28;19913;-76
2022/01/17 11:38:36;;;;;;;;;;;;;;;4.50;84.88;100416.06;5031450;28;19952;-76
2022/01/17 11:41:01;;;;;;;;;;;;;;;4.55;85.71;100421.97;5013876;28;19917;-76
2022/01/17 11:43:35;;;;;;;;;;;;;;;4.61;85.44;100416.91;5031433;28;20283;-76
2022/01/17 11:46:02;;;;;;;;;;;;;;;4.70;83.73;100420.84;5031300;28;20298;-76
2022/01/17 11:48:30;;;;;;;;;;;;;;;4.82;82.96;100433.44;5031318;28;19980;-77
2022/01/17 11:50:56;;;;;;;;;;;;;;;4.91;83.68;100431.13;5031276;28;19999;-76
2022/01/17 11:53:21;;;;;;;;;;;;;;;5.01;82.35;100429.56;5031380;28;19913;-76
2022/01/17 11:55:48;;;;;;;;;;;;;;;5.03;81.42;100421.72;5031338;28;19971;-76
2022/01/17 11:58:21;;;;;;;;;;;;;;;5.07;81.78;100403.25;5031474;28;20349;-76
2022/01/17 12:00:48;;;;;;;;;;;;;;;5.14;80.00;100384.00;5031392;28;19917;-76
2022/01/17 12:03:20;;;;;;;;;;;;;;;5.15;79.10;100366.34;5031162;28;19948;-76
2022/01/17 12:05:45;;;;;;;;;;;;;;;5.27;79.23;100349.44;5031196;28;19924;-76
2022/01/17 12:08:13;;;;;;;;;;;;;;;5.36;78.77;100340.78;5031394;28;19917;-77
2022/01/17 12:10:40;;;;;;;;;;;;;;;5.37;78.02;100348.66;5031131;28;20390;-76
2022/01/17 12:13:12;;;;;;;;;;;;;;;5.39;78.09;100351.00;4996931;28;19924;-76
2022/01/17 12:15:57;;;;;;;;;;;;;;;5.43;77.72;100357.28;5031161;28;19916;-76
2022/01/17 12:18:26;;;;;;;;;;;;;;;5.47;77.32;100352.56;5031238;28;19928;-76
2022/01/17 12:20:52;;;;;;;;;;;;;;;5.48;76.18;100352.19;5030853;28;20349;-76
2022/01/17 12:23:28;;;;;;;;;;;;;;;5.51;76.12;100336.84;5031245;28;19917;-77
2022/01/17 12:25:53;;;;;;;;;;;;;;;5.57;75.67;100322.31;5030622;28;19920;-76
2022/01/17 12:28:18;;;;;;;;;;;;;;;5.64;75.48;100303.03;5031110;28;19939;-76
2022/01/17 12:30:52;;;;;;;;;;;;;;;5.68;75.09;100292.00;5013388;28;19917;-76
2022/01/17 12:33:27;;;;;;;;;;;;;;;5.76;74.09;100284.50;5030625;28;20390;-76
2022/01/17 12:35:53;;;;;;;;;;;;;;;5.80;73.84;100279.78;5018594;28;19976;-76
2022/01/17 12:38:28;;;;;;;;;;;;;;;5.84;73.06;100281.31;5017981;28;20394;-77
2022/01/17 12:40:54;;;;;;;;;;;;;;;5.90;73.20;100285.28;5016124;28;19918;-76
2022/01/17 12:43:23;;;;;;;;;;;;;;;6.00;72.25;100287.19;5020004;28;20309;-77
2022/01/17 12:45:51;;;;;;;;;;;;;;;6.09;71.35;100279.28;5006500;28;20012;-77
2022/01/17 12:48:17;;;;;;;;;;;;;;;6.19;72.07;100287.91;5011260;28;19940;-77
2022/01/17 12:50:43;;;;;;;;;;;;;;;6.25;69.94;100281.56;5034354;28;19928;-76
2022/01/17 12:53:10;;;;;;;;;;;;;;;6.25;70.50;100281.56;5034025;28;19917;-77
2022/01/17 12:55:45;;;;;;;;;;;;;;;6.26;69.95;100265.81;5023984;28;20386;-76